createdAt,value
2018-02-10T00:03:12.000Z,25.16
2018-02-10T00:13:12.000Z,25.1
2018-02-10T00:23:12.000Z,25.1
2018-02-10T00:33:12.000Z,25.04
2018-02-10T00:43:12.000Z,24.99
2018-02-10T00:53:12.000Z,24.97
2018-02-10T01:03:13.000Z,24.91
2018-02-10T01:13:12.000Z,24.9
2018-02-10T01:23:12.000Z,24.82
2018-02-10T01:33:12.000Z,24.77
2018-02-10T01:43:12.000Z,24.74
2018-02-10T01:53:12.000Z,24.68
2018-02-10T02:03:12.000Z,24.65
2018-02-10T02:13:12.000Z,24.6
2018-02-10T02:23:12.000Z,24.53
2018-02-10T02:33:12.000Z,24.53
2018-02-10T02:43:12.000Z,24.43
2018-02-10T02:53:12.000Z,24.44
2018-02-10T03:03:12.000Z,24.33
2018-02-10T03:13:12.000Z,24.35
2018-02-10T03:23:12.000Z,24.37
2018-02-10T03:33:12.000Z,24.44
2018-02-10T03:43:13.000Z,24.25
2018-02-10T03:53:12.000Z,24.32
2018-02-10T04:03:13.000Z,24.28
2018-02-10T04:13:13.000Z,24.16
2018-02-10T04:23:13.000Z,24.2
2018-02-10T04:33:13.000Z,24.26
2018-02-10T04:43:13.000Z,24.1
2018-02-10T04:53:13.000Z,24.1
2018-02-10T05:03:13.000Z,24.07
2018-02-10T05:13:13.000Z,24.23
2018-02-10T05:23:13.000Z,24.22
2018-02-10T05:33:13.000Z,24.22
2018-02-10T05:43:13.000Z,24.27
2018-02-10T05:53:13.000Z,24.36
2018-02-10T06:03:13.000Z,24.38
2018-02-10T06:13:13.000Z,24.46
2018-02-10T06:23:13.000Z,24.49
2018-02-10T06:33:13.000Z,24.48
2018-02-10T06:43:13.000Z,24.55
2018-02-10T06:53:13.000Z,24.55
2018-02-10T07:03:13.000Z,24.61
2018-02-10T07:13:13.000Z,24.68
2018-02-10T07:23:13.000Z,24.55
2018-02-10T07:33:13.000Z,24.73
2018-02-10T07:43:13.000Z,24.63
2018-02-10T07:53:13.000Z,24.8
2018-02-10T08:03:13.000Z,24.78
2018-02-10T08:13:13.000Z,24.57
2018-02-10T08:23:13.000Z,24.76
2018-02-10T08:33:13.000Z,24.77
2018-02-10T08:43:13.000Z,24.76
2018-02-10T08:53:13.000Z,24.72
2018-02-10T09:03:13.000Z,24.64
2018-02-10T09:13:13.000Z,24.62
2018-02-10T09:23:16.000Z,24.45
2018-02-10T09:33:13.000Z,24.42
2018-02-10T09:43:13.000Z,24.41
2018-02-10T09:53:13.000Z,24.53
2018-02-10T10:03:13.000Z,24.44
2018-02-10T10:13:13.000Z,24.36
2018-02-10T10:23:13.000Z,24.41
2018-02-10T10:33:13.000Z,24.47
2018-02-10T10:43:13.000Z,24.4
2018-02-10T10:53:13.000Z,24.81
2018-02-10T11:03:17.000Z,24.35
2018-02-10T11:13:13.000Z,24.41
2018-02-10T11:23:13.000Z,24.47
2018-02-10T11:33:13.000Z,24.47
2018-02-10T11:43:13.000Z,24.49
2018-02-10T11:53:17.000Z,24.49
2018-02-10T12:03:13.000Z,24.52
2018-02-10T12:13:13.000Z,24.6
2018-02-10T12:23:14.000Z,24.58
2018-02-10T12:33:14.000Z,24.59
2018-02-10T12:43:14.000Z,24.58
2018-02-10T12:53:14.000Z,24.58
2018-02-10T13:03:14.000Z,24.63
2018-02-10T13:13:14.000Z,24.66
2018-02-10T13:23:14.000Z,24.71
2018-02-10T13:33:14.000Z,24.75
2018-02-10T13:43:14.000Z,24.77
2018-02-10T13:53:14.000Z,24.78
2018-02-10T14:03:14.000Z,24.75
2018-02-10T14:13:14.000Z,24.72
2018-02-10T14:23:14.000Z,24.73
2018-02-10T14:33:14.000Z,24.7
2018-02-10T14:43:14.000Z,24.73
2018-02-10T14:53:14.000Z,24.62
2018-02-10T15:03:14.000Z,24.57
2018-02-10T15:13:16.000Z,24.63
2018-02-10T15:23:14.000Z,24.6
2018-02-10T15:33:14.000Z,24.55
2018-02-10T15:43:18.000Z,24.68
2018-02-10T15:53:14.000Z,24.66
2018-02-10T16:03:14.000Z,24.6
2018-02-10T16:13:14.000Z,24.65
2018-02-10T16:23:14.000Z,24.62
2018-02-10T16:33:14.000Z,24.7
2018-02-10T16:43:15.000Z,24.65
2018-02-10T16:53:14.000Z,24.71
2018-02-10T17:03:14.000Z,24.69
2018-02-10T17:13:14.000Z,24.68
2018-02-10T17:23:14.000Z,24.73
2018-02-10T17:33:14.000Z,24.69
2018-02-10T17:43:14.000Z,24.69
2018-02-10T17:53:14.000Z,24.78
2018-02-10T18:03:15.000Z,24.72
2018-02-10T18:13:14.000Z,24.72
2018-02-10T18:23:14.000Z,24.69
2018-02-10T18:33:14.000Z,24.69
2018-02-10T18:43:14.000Z,24.9
2018-02-10T18:53:14.000Z,24.9
2018-02-10T19:03:14.000Z,24.94
2018-02-10T19:13:14.000Z,25.21
2018-02-10T19:23:14.000Z,25.27
2018-02-10T19:33:14.000Z,25.17
2018-02-10T19:43:14.000Z,25.19
2018-02-10T19:53:16.000Z,25.16
2018-02-10T20:03:15.000Z,25.33
2018-02-10T20:13:14.000Z,25.3
2018-02-10T20:23:14.000Z,25.21
2018-02-10T20:33:14.000Z,25.14
2018-02-10T20:43:15.000Z,25.17
2018-02-10T20:53:15.000Z,24.32
2018-02-10T21:03:15.000Z,24.9
2018-02-10T21:13:15.000Z,24.98
2018-02-10T21:23:15.000Z,25.07
2018-02-10T21:33:15.000Z,25.08
2018-02-10T21:43:15.000Z,25.03
2018-02-10T21:53:15.000Z,25.05
2018-02-10T22:03:15.000Z,25.12
2018-02-10T22:13:15.000Z,25.16
2018-02-10T22:23:15.000Z,25.26
2018-02-10T22:33:15.000Z,25.17
2018-02-10T22:43:15.000Z,25.2
2018-02-10T22:53:15.000Z,25.14
2018-02-10T23:03:15.000Z,25.17
2018-02-10T23:13:15.000Z,25.12
2018-02-10T23:23:15.000Z,25.12
2018-02-10T23:33:15.000Z,25.01
2018-02-10T23:43:15.000Z,24.98
2018-02-10T23:53:15.000Z,24.93
